sensor_id;sensor_type;location;lat;lon;timestamp;pressure;altitude;pressure_sealevel;temperature
19061;BMP280;9663;48.996;8.334;2022-10-04T00:02:21;101037.16;;;13.57
19061;BMP280;9663;48.996;8.334;2022-10-04T00:04:58;101037.16;;;13.59
19061;BMP280;9663;48.996;8.334;2022-10-04T00:07:33;101033.75;;;13.57
19061;BMP280;9663;48.996;8.334;2022-10-04T00:10:30;101034.66;;;13.47
19061;BMP280;9663;48.996;8.334;2022-10-04T00:13:05;101037.22;;;13.42
19061;BMP280;9663;48.996;8.334;2022-10-04T00:15:35;101029.56;;;13.39
19061;BMP280;9663;48.996;8.334;2022-10-04T00:25:55;101021.94;;;13.38
19061;BMP280;9663;48.996;8.334;2022-10-04T00:36:55;101016.00;;;13.36
19061;BMP280;9663;48.996;8.334;2022-10-04T00:39:37;101012.63;;;13.34
19061;BMP280;9663;48.996;8.334;2022-10-04T00:42:35;101010.91;;;13.31
19061;BMP280;9663;48.996;8.334;2022-10-04T00:45:12;101019.41;;;13.29
19061;BMP280;9663;48.996;8.334;2022-10-04T00:50:36;101015.22;;;13.19
19061;BMP280;9663;48.996;8.334;2022-10-04T00:53:30;101023.69;;;13.17
19061;BMP280;9663;48.996;8.334;2022-10-04T00:56:02;101016.91;;;13.16
19061;BMP280;9663;48.996;8.334;2022-10-04T00:59:01;101013.53;;;13.11
19061;BMP280;9663;48.996;8.334;2022-10-04T01:01:33;101021.19;;;13.12
19061;BMP280;9663;48.996;8.334;2022-10-04T01:04:06;101016.09;;;13.12
19061;BMP280;9663;48.996;8.334;2022-10-04T01:06:40;101013.53;;;13.11
19061;BMP280;9663;48.996;8.334;2022-10-04T01:09:10;101007.56;;;13.12
19061;BMP280;9663;48.996;8.334;2022-10-04T01:11:55;101002.47;;;13.10
19061;BMP280;9663;48.996;8.334;2022-10-04T01:17:07;101009.28;;;13.14
19061;BMP280;9663;48.996;8.334;2022-10-04T01:19:32;101005.88;;;13.15
19061;BMP280;9663;48.996;8.334;2022-10-04T01:22:41;100999.97;;;13.09
19061;BMP280;9663;48.996;8.334;2022-10-04T01:25:07;100988.91;;;13.14
19061;BMP280;9663;48.996;8.334;2022-10-04T01:27:42;100996.53;;;13.16
19061;BMP280;9663;48.996;8.334;2022-10-04T01:30:17;100992.28;;;13.15
19061;BMP280;9663;48.996;8.334;2022-10-04T01:32:44;100981.25;;;13.16
19061;BMP280;9663;48.996;8.334;2022-10-04T01:35:12;100988.91;;;13.16
19061;BMP280;9663;48.996;8.334;2022-10-04T01:37:39;100980.38;;;13.15
19061;BMP280;9663;48.996;8.334;2022-10-04T01:40:08;100981.25;;;13.16
19061;BMP280;9663;48.996;8.334;2022-10-04T01:42:52;100968.53;;;13.14
19061;BMP280;9663;48.996;8.334;2022-10-04T01:45:39;100968.53;;;13.14
19061;BMP280;9663;48.996;8.334;2022-10-04T01:48:14;100971.91;;;13.15
19061;BMP280;9663;48.996;8.334;2022-10-04T01:50:57;100960.06;;;13.12
19061;BMP280;9663;48.996;8.334;2022-10-04T01:53:29;100962.59;;;13.12
19061;BMP280;9663;48.996;8.334;2022-10-04T01:56:13;100957.50;;;13.11
19061;BMP280;9663;48.996;8.334;2022-10-04T01:58:58;100950.72;;;13.08
19061;BMP280;9663;48.996;8.334;2022-10-04T02:04:10;100946.50;;;13.06
19061;BMP280;9663;48.996;8.334;2022-10-04T02:06:42;100949.88;;;13.06
19061;BMP280;9663;48.996;8.334;2022-10-04T02:09:19;100954.13;;;13.06
19061;BMP280;9663;48.996;8.334;2022-10-04T02:11:49;100947.34;;;13.05
19061;BMP280;9663;48.996;8.334;2022-10-04T02:14:24;100951.59;;;13.03
19061;BMP280;9663;48.996;8.334;2022-10-04T02:16:52;100952.44;;;13.00
19061;BMP280;9663;48.996;8.334;2022-10-04T02:19:26;100959.22;;;13.00
19061;BMP280;9663;48.996;8.334;2022-10-04T02:21:57;100949.03;;;12.97
19061;BMP280;9663;48.996;8.334;2022-10-04T02:24:25;100947.38;;;12.94
19061;BMP280;9663;48.996;8.334;2022-10-04T02:26:52;100947.38;;;12.93
19061;BMP280;9663;48.996;8.334;2022-10-04T02:29:19;100955.03;;;12.91
19061;BMP280;9663;48.996;8.334;2022-10-04T02:31:47;100954.19;;;12.91
19061;BMP280;9663;48.996;8.334;2022-10-04T02:34:34;100947.38;;;12.88
19061;BMP280;9663;48.996;8.334;2022-10-04T02:37:03;100948.22;;;12.89
19061;BMP280;9663;48.996;8.334;2022-10-04T02:40:04;100949.94;;;12.84
19061;BMP280;9663;48.996;8.334;2022-10-04T02:43:09;100950.81;;;12.83
19061;BMP280;9663;48.996;8.334;2022-10-04T02:46:01;100945.72;;;12.83
19061;BMP280;9663;48.996;8.334;2022-10-04T02:51:19;100938.06;;;12.83
19061;BMP280;9663;48.996;8.334;2022-10-04T02:54:27;100939.78;;;12.81
19061;BMP280;9663;48.996;8.334;2022-10-04T02:56:56;100937.19;;;12.84
19061;BMP280;9663;48.996;8.334;2022-10-04T02:59:23;100940.63;;;12.84
19061;BMP280;9663;48.996;8.334;2022-10-04T03:01:56;100942.28;;;12.85
19061;BMP280;9663;48.996;8.334;2022-10-04T03:04:38;100934.66;;;12.84
19061;BMP280;9663;48.996;8.334;2022-10-04T03:07:07;100942.28;;;12.84
19061;BMP280;9663;48.996;8.334;2022-10-04T03:09:36;100938.06;;;12.84
19061;BMP280;9663;48.996;8.334;2022-10-04T03:12:04;100938.06;;;12.83
19061;BMP280;9663;48.996;8.334;2022-10-04T03:14:32;100932.13;;;12.82
19061;BMP280;9663;48.996;8.334;2022-10-04T03:17:01;100932.09;;;12.84
19061;BMP280;9663;48.996;8.334;2022-10-04T03:19:32;100932.97;;;12.84
19061;BMP280;9663;48.996;8.334;2022-10-04T03:22:10;100933.81;;;12.85
19061;BMP280;9663;48.996;8.334;2022-10-04T03:24:48;100925.34;;;12.83
19061;BMP280;9663;48.996;8.334;2022-10-04T03:27:31;100916.88;;;12.82
19061;BMP280;9663;48.996;8.334;2022-10-04T03:29:59;100910.91;;;12.82
19061;BMP280;9663;48.996;8.334;2022-10-04T03:32:27;100917.69;;;12.81
19061;BMP280;9663;48.996;8.334;2022-10-04T03:35:02;100915.13;;;12.80
19061;BMP280;9663;48.996;8.334;2022-10-04T03:37:34;100919.38;;;12.78
19061;BMP280;9663;48.996;8.334;2022-10-04T03:40:02;100924.47;;;12.78
19061;BMP280;9663;48.996;8.334;2022-10-04T03:42:33;100918.53;;;12.76
19061;BMP280;9663;48.996;8.334;2022-10-04T03:45:07;100928.72;;;12.76
19061;BMP280;9663;48.996;8.334;2022-10-04T03:47:39;100922.78;;;12.74
19061;BMP280;9663;48.996;8.334;2022-10-04T03:50:31;100913.47;;;12.67
19061;BMP280;9663;48.996;8.334;2022-10-04T03:53:28;100922.81;;;12.61
19061;BMP280;9663;48.996;8.334;2022-10-04T03:55:56;100923.69;;;12.60
19061;BMP280;9663;48.996;8.334;2022-10-04T03:58:25;100928.75;;;12.55
19061;BMP280;9663;48.996;8.334;2022-10-04T04:04:42;100936.41;;;12.36
19061;BMP280;9663;48.996;8.334;2022-10-04T04:07:23;100935.56;;;12.28
19061;BMP280;9663;48.996;8.334;2022-10-04T04:10:30;100938.97;;;12.18
19061;BMP280;9663;48.996;8.334;2022-10-04T04:13:27;100942.38;;;12.14
19061;BMP280;9663;48.996;8.334;2022-10-04T04:15:55;100945.75;;;12.13
19061;BMP280;9663;48.996;8.334;2022-10-04T04:18:24;100947.44;;;12.10
19061;BMP280;9663;48.996;8.334;2022-10-04T04:20:54;100944.06;;;12.06
19061;BMP280;9663;48.996;8.334;2022-10-04T04:23:38;100948.28;;;12.03
19061;BMP280;9663;48.996;8.334;2022-10-04T04:26:38;100944.06;;;11.99
19061;BMP280;9663;48.996;8.334;2022-10-04T04:29:30;100940.69;;;11.94
19061;BMP280;9663;48.996;8.334;2022-10-04T04:32:05;100937.25;;;11.93
19061;BMP280;9663;48.996;8.334;2022-10-04T04:34:48;100943.19;;;11.95
19061;BMP280;9663;48.996;8.334;2022-10-04T04:37:14;100939.81;;;11.96
19061;BMP280;9663;48.996;8.334;2022-10-04T04:39:40;100942.38;;;11.98
19061;BMP280;9663;48.996;8.334;2022-10-04T04:45:19;100945.75;;;11.97
19061;BMP280;9663;48.996;8.334;2022-10-04T04:47:50;100952.53;;;12.02
19061;BMP280;9663;48.996;8.334;2022-10-04T04:52:51;100951.69;;;12.03
19061;BMP280;9663;48.996;8.334;2022-10-04T04:55:25;100944.06;;;12.05
19061;BMP280;9663;48.996;8.334;2022-10-04T04:57:55;100935.59;;;12.04
19061;BMP280;9663;48.996;8.334;2022-10-04T05:00:28;100947.44;;;12.08
19061;BMP280;9663;48.996;8.334;2022-10-04T05:03:05;100944.91;;;12.08
19061;BMP280;9663;48.996;8.334;2022-10-04T05:05:33;100953.41;;;12.10
19061;BMP280;9663;48.996;8.334;2022-10-04T05:08:27;100959.31;;;12.08
19061;BMP280;9663;48.996;8.334;2022-10-04T05:13:52;100964.41;;;12.08
19061;BMP280;9663;48.996;8.334;2022-10-04T05:16:26;100955.94;;;12.07
19061;BMP280;9663;48.996;8.334;2022-10-04T05:19:02;100959.31;;;12.06
19061;BMP280;9663;48.996;8.334;2022-10-04T05:21:32;100963.56;;;12.07
19061;BMP280;9663;48.996;8.334;2022-10-04T05:24:13;100965.25;;;12.08
19061;BMP280;9663;48.996;8.334;2022-10-04T05:26:42;100965.25;;;12.10
19061;BMP280;9663;48.996;8.334;2022-10-04T05:29:18;100969.50;;;12.14
19061;BMP280;9663;48.996;8.334;2022-10-04T05:35:17;100974.59;;;12.15
19061;BMP280;9663;48.996;8.334;2022-10-04T05:40:34;100975.44;;;12.20
19061;BMP280;9663;48.996;8.334;2022-10-04T05:43:19;100976.28;;;12.19
19061;BMP280;9663;48.996;8.334;2022-10-04T05:48:40;100981.34;;;12.28
19061;BMP280;9663;48.996;8.334;2022-10-04T05:51:26;100978.81;;;12.34
19061;BMP280;9663;48.996;8.334;2022-10-04T05:53:54;100972.03;;;12.39
19061;BMP280;9663;48.996;8.334;2022-10-04T05:59:55;100967.78;;;12.47
19061;BMP280;9663;48.996;8.334;2022-10-04T06:05:53;100969.47;;;12.54
19061;BMP280;9663;48.996;8.334;2022-10-04T06:08:47;100973.72;;;12.64
19061;BMP280;9663;48.996;8.334;2022-10-04T06:11:54;100967.75;;;12.74
19061;BMP280;9663;48.996;8.334;2022-10-04T06:14:37;100964.38;;;12.85
19061;BMP280;9663;48.996;8.334;2022-10-04T06:20:19;100954.13;;;13.04
19061;BMP280;9663;48.996;8.334;2022-10-04T06:22:59;100954.09;;;13.13
19061;BMP280;9663;48.996;8.334;2022-10-04T06:25:58;100952.38;;;13.17
19061;BMP280;9663;48.996;8.334;2022-10-04T06:28:39;100943.88;;;13.23
19061;BMP280;9663;48.996;8.334;2022-10-04T06:34:39;100957.44;;;13.25
19061;BMP280;9663;48.996;8.334;2022-10-04T06:37:42;100948.91;;;13.31
19061;BMP280;9663;48.996;8.334;2022-10-04T06:44:02;100949.72;;;13.43
19061;BMP280;9663;48.996;8.334;2022-10-04T06:49:44;100960.69;;;13.57
19061;BMP280;9663;48.996;8.334;2022-10-04T06:55:35;100975.97;;;13.54
19061;BMP280;9663;48.996;8.334;2022-10-04T06:58:17;100969.22;;;13.53
19061;BMP280;9663;48.996;8.334;2022-10-04T07:01:05;100972.59;;;13.57
19061;BMP280;9663;48.996;8.334;2022-10-04T07:03:53;100980.22;;;13.60
19061;BMP280;9663;48.996;8.334;2022-10-04T07:06:32;100986.16;;;13.65
19061;BMP280;9663;48.996;8.334;2022-10-04T07:09:04;100987.81;;;13.71
19061;BMP280;9663;48.996;8.334;2022-10-04T07:11:47;100976.72;;;13.75
19061;BMP280;9663;48.996;8.334;2022-10-04T07:14:31;100985.19;;;13.80
19061;BMP280;9663;48.996;8.334;2022-10-04T07:17:11;100989.44;;;13.84
19061;BMP280;9663;48.996;8.334;2022-10-04T07:19:46;100989.38;;;13.90
19061;BMP280;9663;48.996;8.334;2022-10-04T07:22:38;100990.19;;;13.95
19061;BMP280;9663;48.996;8.334;2022-10-04T07:25:23;100981.66;;;14.02
19061;BMP280;9663;48.996;8.334;2022-10-04T07:33:24;100987.31;;;14.41
19061;BMP280;9663;48.996;8.334;2022-10-04T07:36:08;100989.78;;;14.54
19061;BMP280;9663;48.996;8.334;2022-10-04T07:38:47;100992.13;;;14.72
19061;BMP280;9663;48.996;8.334;2022-10-04T07:41:24;100989.41;;;14.92
19061;BMP280;9663;48.996;8.334;2022-10-04T07:43:57;100994.31;;;15.08
19061;BMP280;9663;48.996;8.334;2022-10-04T07:49:03;101000.88;;;15.34
19061;BMP280;9663;48.996;8.334;2022-10-04T07:51:58;101003.34;;;15.43
19061;BMP280;9663;48.996;8.334;2022-10-04T07:54:40;100984.44;;;15.54
19061;BMP280;9663;48.996;8.334;2022-10-04T08:00:18;100980.75;;;15.73
19061;BMP280;9663;48.996;8.334;2022-10-04T08:03:03;100978.88;;;15.85
19061;BMP280;9663;48.996;8.334;2022-10-04T08:05:40;100972.78;;;15.94
19061;BMP280;9663;48.996;8.334;2022-10-04T08:11:23;100973.38;;;16.11
19061;BMP280;9663;48.996;8.334;2022-10-04T08:14:27;100979.41;;;16.07
19061;BMP280;9663;48.996;8.334;2022-10-04T08:17:17;100975.19;;;16.04
19061;BMP280;9663;48.996;8.334;2022-10-04T08:23:54;100976.00;;;16.06
19061;BMP280;9663;48.996;8.334;2022-10-04T08:30:01;100986.66;;;16.36
19061;BMP280;9663;48.996;8.334;2022-10-04T08:33:01;100988.19;;;16.46
19061;BMP280;9663;48.996;8.334;2022-10-04T08:38:56;101001.75;;;16.51
19061;BMP280;9663;48.996;8.334;2022-10-04T08:42:23;101005.13;;;16.53
19061;BMP280;9663;48.996;8.334;2022-10-04T08:54:35;100989.88;;;16.95
19061;BMP280;9663;48.996;8.334;2022-10-04T09:06:10;100969.44;;;17.73
19061;BMP280;9663;48.996;8.334;2022-10-04T09:09:23;100965.25;;;17.71
19061;BMP280;9663;48.996;8.334;2022-10-04T09:12:10;100976.25;;;17.76
19061;BMP280;9663;48.996;8.334;2022-10-04T09:15:28;100982.13;;;17.81
19061;BMP280;9663;48.996;8.334;2022-10-04T09:29:15;100969.03;;;17.91
19061;BMP280;9663;48.996;8.334;2022-10-04T09:53:42;100973.66;;;18.81
19061;BMP280;9663;48.996;8.334;2022-10-04T09:56:23;100973.91;;;18.72
19061;BMP280;9663;48.996;8.334;2022-10-04T10:02:39;100975.97;;;18.58
19061;BMP280;9663;48.996;8.334;2022-10-04T10:14:25;100975.81;;;18.64
19061;BMP280;9663;48.996;8.334;2022-10-04T10:17:31;100976.75;;;18.60
19061;BMP280;9663;48.996;8.334;2022-10-04T10:34:40;100971.34;;;19.04
19061;BMP280;9663;48.996;8.334;2022-10-04T10:43:26;100961.56;;;20.01
19061;BMP280;9663;48.996;8.334;2022-10-04T10:46:25;100958.75;;;20.34
19061;BMP280;9663;48.996;8.334;2022-10-04T11:04:50;100918.84;;;21.18
19061;BMP280;9663;48.996;8.334;2022-10-04T11:07:53;100916.75;;;21.27
19061;BMP280;9663;48.996;8.334;2022-10-04T11:14:07;100918.91;;;21.82
19061;BMP280;9663;48.996;8.334;2022-10-04T11:17:09;100910.03;;;22.51
19061;BMP280;9663;48.996;8.334;2022-10-04T11:25:59;100880.28;;;27.52
19061;BMP280;9663;48.996;8.334;2022-10-04T11:28:54;100877.84;;;28.01
19061;BMP280;9663;48.996;8.334;2022-10-04T11:31:50;100862.09;;;28.66
19061;BMP280;9663;48.996;8.334;2022-10-04T11:40:57;100858.78;;;30.84
19061;BMP280;9663;48.996;8.334;2022-10-04T11:55:54;100850.50;;;33.25
19061;BMP280;9663;48.996;8.334;2022-10-04T12:10:30;100840.56;;;34.32
19061;BMP280;9663;48.996;8.334;2022-10-04T12:17:01;100842.06;;;35.16
19061;BMP280;9663;48.996;8.334;2022-10-04T12:20:09;100836.69;;;35.52
19061;BMP280;9663;48.996;8.334;2022-10-04T12:31:20;100824.16;;;36.49
19061;BMP280;9663;48.996;8.334;2022-10-04T12:34:22;100813.47;;;36.91
19061;BMP280;9663;48.996;8.334;2022-10-04T12:37:41;100818.38;;;37.19
19061;BMP280;9663;48.996;8.334;2022-10-04T12:48:20;100795.94;;;38.88
19061;BMP280;9663;48.996;8.334;2022-10-04T12:51:42;100798.63;;;38.72
19061;BMP280;9663;48.996;8.334;2022-10-04T12:54:37;100802.16;;;38.65
19061;BMP280;9663;48.996;8.334;2022-10-04T13:00:14;100797.16;;;38.70
19061;BMP280;9663;48.996;8.334;2022-10-04T13:03:30;100793.59;;;38.93
19061;BMP280;9663;48.996;8.334;2022-10-04T13:06:29;100792.50;;;39.10
19061;BMP280;9663;48.996;8.334;2022-10-04T13:09:03;100787.09;;;39.34
19061;BMP280;9663;48.996;8.334;2022-10-04T13:17:51;100777.41;;;37.23
19061;BMP280;9663;48.996;8.334;2022-10-04T13:29:11;100772.25;;;38.49
19061;BMP280;9663;48.996;8.334;2022-10-04T13:31:49;100777.88;;;38.84
19061;BMP280;9663;48.996;8.334;2022-10-04T13:34:39;100771.59;;;38.85
19061;BMP280;9663;48.996;8.334;2022-10-04T13:37:43;100776.91;;;38.85
19061;BMP280;9663;48.996;8.334;2022-10-04T13:52:49;100761.31;;;38.82
19061;BMP280;9663;48.996;8.334;2022-10-04T13:56:36;100764.47;;;38.77
19061;BMP280;9663;48.996;8.334;2022-10-04T14:19:50;100765.47;;;30.40
19061;BMP280;9663;48.996;8.334;2022-10-04T14:25:40;100753.78;;;30.11
19061;BMP280;9663;48.996;8.334;2022-10-04T14:31:39;100743.28;;;32.80
19061;BMP280;9663;48.996;8.334;2022-10-04T14:37:22;100735.56;;;35.27
19061;BMP280;9663;48.996;8.334;2022-10-04T14:44:03;100716.91;;;37.28
19061;BMP280;9663;48.996;8.334;2022-10-04T14:49:45;100723.16;;;38.06
19061;BMP280;9663;48.996;8.334;2022-10-04T14:59:00;100724.94;;;38.68
19061;BMP280;9663;48.996;8.334;2022-10-04T15:01:29;100728.44;;;38.60
19061;BMP280;9663;48.996;8.334;2022-10-04T15:07:22;100709.53;;;38.25
19061;BMP280;9663;48.996;8.334;2022-10-04T15:10:23;100716.13;;;38.29
19061;BMP280;9663;48.996;8.334;2022-10-04T15:13:40;100712.66;;;38.37
19061;BMP280;9663;48.996;8.334;2022-10-04T15:19:06;100705.78;;;38.58
19061;BMP280;9663;48.996;8.334;2022-10-04T15:24:42;100706.94;;;38.55
19061;BMP280;9663;48.996;8.334;2022-10-04T15:39:00;100691.59;;;37.26
19061;BMP280;9663;48.996;8.334;2022-10-04T15:42:12;100688.09;;;36.86
19061;BMP280;9663;48.996;8.334;2022-10-04T15:45:22;100687.00;;;35.97
19061;BMP280;9663;48.996;8.334;2022-10-04T15:51:34;100678.59;;;33.83
19061;BMP280;9663;48.996;8.334;2022-10-04T16:00:24;100686.50;;;31.30
19061;BMP280;9663;48.996;8.334;2022-10-04T16:03:01;100685.03;;;30.63
19061;BMP280;9663;48.996;8.334;2022-10-04T16:05:59;100694.06;;;29.83
19061;BMP280;9663;48.996;8.334;2022-10-04T16:08:44;100695.47;;;29.19
19061;BMP280;9663;48.996;8.334;2022-10-04T16:14:32;100698.34;;;27.95
19061;BMP280;9663;48.996;8.334;2022-10-04T16:17:36;100701.06;;;27.43
19061;BMP280;9663;48.996;8.334;2022-10-04T16:20:31;100714.47;;;26.99
19061;BMP280;9663;48.996;8.334;2022-10-04T16:23:36;100719.84;;;26.56
19061;BMP280;9663;48.996;8.334;2022-10-04T16:26:08;100724.91;;;26.16
19061;BMP280;9663;48.996;8.334;2022-10-04T16:29:11;100721.72;;;25.69
19061;BMP280;9663;48.996;8.334;2022-10-04T16:32:16;100724.31;;;25.25
19061;BMP280;9663;48.996;8.334;2022-10-04T16:34:57;100714.31;;;24.88
19061;BMP280;9663;48.996;8.334;2022-10-04T16:37:32;100723.50;;;24.63
19061;BMP280;9663;48.996;8.334;2022-10-04T16:46:02;100723.16;;;23.72
19061;BMP280;9663;48.996;8.334;2022-10-04T16:49:48;100735.97;;;23.40
19061;BMP280;9663;48.996;8.334;2022-10-04T16:55:08;100729.06;;;22.87
19061;BMP280;9663;48.996;8.334;2022-10-04T16:57:41;100714.44;;;22.68
19061;BMP280;9663;48.996;8.334;2022-10-04T17:00:34;100699.38;;;22.41
19061;BMP280;9663;48.996;8.334;2022-10-04T17:03:25;100703.69;;;22.22
19061;BMP280;9663;48.996;8.334;2022-10-04T17:06:13;100701.03;;;22.04
19061;BMP280;9663;48.996;8.334;2022-10-04T17:09:06;100690.78;;;21.83
19061;BMP280;9663;48.996;8.334;2022-10-04T17:18:11;100706.09;;;21.26
19061;BMP280;9663;48.996;8.334;2022-10-04T17:26:38;100726.94;;;20.55
19061;BMP280;9663;48.996;8.334;2022-10-04T17:41:15;100743.41;;;19.80
19061;BMP280;9663;48.996;8.334;2022-10-04T17:47:11;100742.50;;;19.57
19061;BMP280;9663;48.996;8.334;2022-10-04T17:52:53;100744.84;;;19.38
19061;BMP280;9663;48.996;8.334;2022-10-04T17:55:53;100747.75;;;19.28
19061;BMP280;9663;48.996;8.334;2022-10-04T17:58:37;100742.88;;;19.19
19061;BMP280;9663;48.996;8.334;2022-10-04T18:01:42;100739.75;;;19.10
19061;BMP280;9663;48.996;8.334;2022-10-04T18:04:28;100744.16;;;19.06
19061;BMP280;9663;48.996;8.334;2022-10-04T18:09:47;100750.59;;;18.92
19061;BMP280;9663;48.996;8.334;2022-10-04T18:12:30;100750.75;;;18.86
19061;BMP280;9663;48.996;8.334;2022-10-04T18:17:47;100751.13;;;18.74
19061;BMP280;9663;48.996;8.334;2022-10-04T18:20:30;100750.41;;;18.69
19061;BMP280;9663;48.996;8.334;2022-10-04T18:23:17;100748.03;;;18.63
19061;BMP280;9663;48.996;8.334;2022-10-04T18:25:45;100751.66;;;18.56
19061;BMP280;9663;48.996;8.334;2022-10-04T18:28:13;100750.13;;;18.51
19061;BMP280;9663;48.996;8.334;2022-10-04T18:33:24;100756.31;;;18.42
19061;BMP280;9663;48.996;8.334;2022-10-04T18:36:29;100760.91;;;18.33
19061;BMP280;9663;48.996;8.334;2022-10-04T18:41:42;100765.38;;;18.27
19061;BMP280;9663;48.996;8.334;2022-10-04T18:44:44;100767.31;;;18.17
19061;BMP280;9663;48.996;8.334;2022-10-04T18:50:01;100764.03;;;18.12
19061;BMP280;9663;48.996;8.334;2022-10-04T18:56:02;100755.88;;;17.97
19061;BMP280;9663;48.996;8.334;2022-10-04T18:58:48;100761.06;;;17.96
19061;BMP280;9663;48.996;8.334;2022-10-04T19:10:35;100774.25;;;17.82
19061;BMP280;9663;48.996;8.334;2022-10-04T19:16:33;100788.97;;;17.74
19061;BMP280;9663;48.996;8.334;2022-10-04T19:25:32;100789.34;;;17.59
19061;BMP280;9663;48.996;8.334;2022-10-04T19:28:19;100792.00;;;17.56
19061;BMP280;9663;48.996;8.334;2022-10-04T19:31:02;100788.66;;;17.53
19061;BMP280;9663;48.996;8.334;2022-10-04T19:33:49;100805.88;;;17.48
19061;BMP280;9663;48.996;8.334;2022-10-04T19:36:23;100796.44;;;17.49
19061;BMP280;9663;48.996;8.334;2022-10-04T19:42:14;100812.16;;;17.35
19061;BMP280;9663;48.996;8.334;2022-10-04T19:45:21;100814.84;;;17.29
19061;BMP280;9663;48.996;8.334;2022-10-04T19:47:54;100817.44;;;17.28
19061;BMP280;9663;48.996;8.334;2022-10-04T19:50:50;100823.63;;;17.19
19061;BMP280;9663;48.996;8.334;2022-10-04T19:53:35;100824.53;;;17.17
19061;BMP280;9663;48.996;8.334;2022-10-04T19:56:19;100823.84;;;17.09
19061;BMP280;9663;48.996;8.334;2022-10-04T19:59:05;100839.31;;;17.05
19061;BMP280;9663;48.996;8.334;2022-10-04T20:01:35;100836.00;;;17.00
19061;BMP280;9663;48.996;8.334;2022-10-04T20:04:09;100834.38;;;16.96
19061;BMP280;9663;48.996;8.334;2022-10-04T20:06:58;100831.97;;;16.88
19061;BMP280;9663;48.996;8.334;2022-10-04T20:10:05;100833.94;;;16.77
19061;BMP280;9663;48.996;8.334;2022-10-04T20:12:41;100838.31;;;16.71
19061;BMP280;9663;48.996;8.334;2022-10-04T20:17:43;100835.09;;;16.62
19061;BMP280;9663;48.996;8.334;2022-10-04T20:22:59;100836.94;;;16.54
19061;BMP280;9663;48.996;8.334;2022-10-04T20:31:00;100854.94;;;16.49
19061;BMP280;9663;48.996;8.334;2022-10-04T20:38:54;100842.34;;;16.40
19061;BMP280;9663;48.996;8.334;2022-10-04T20:47:48;100856.09;;;16.35
19061;BMP280;9663;48.996;8.334;2022-10-04T20:50:39;100859.59;;;16.29
19061;BMP280;9663;48.996;8.334;2022-10-04T20:53:26;100866.44;;;16.29
19061;BMP280;9663;48.996;8.334;2022-10-04T20:56:21;100874.16;;;16.26
19061;BMP280;9663;48.996;8.334;2022-10-04T20:58:58;100871.59;;;16.26
19061;BMP280;9663;48.996;8.334;2022-10-04T21:01:28;100866.50;;;16.26
19061;BMP280;9663;48.996;8.334;2022-10-04T21:04:28;100870.00;;;16.22
19061;BMP280;9663;48.996;8.334;2022-10-04T21:07:03;100878.53;;;16.21
19061;BMP280;9663;48.996;8.334;2022-10-04T21:09:32;100885.38;;;16.18
19061;BMP280;9663;48.996;8.334;2022-10-04T21:12:00;100883.66;;;16.18
19061;BMP280;9663;48.996;8.334;2022-10-04T21:14:36;100873.47;;;16.17
19061;BMP280;9663;48.996;8.334;2022-10-04T21:17:04;100873.53;;;16.14
19061;BMP280;9663;48.996;8.334;2022-10-04T21:22:32;100879.63;;;16.05
19061;BMP280;9663;48.996;8.334;2022-10-04T21:25:01;100873.66;;;16.05
19061;BMP280;9663;48.996;8.334;2022-10-04T21:27:32;100874.53;;;16.04
19061;BMP280;9663;48.996;8.334;2022-10-04T21:30:01;100872.88;;;16.01
19061;BMP280;9663;48.996;8.334;2022-10-04T21:32:34;100869.50;;;15.99
19061;BMP280;9663;48.996;8.334;2022-10-04T21:35:01;100869.53;;;15.96
19061;BMP280;9663;48.996;8.334;2022-10-04T21:37:28;100859.34;;;15.93
19061;BMP280;9663;48.996;8.334;2022-10-04T21:39:54;100863.63;;;15.93
19061;BMP280;9663;48.996;8.334;2022-10-04T21:42:20;100855.16;;;15.91
19061;BMP280;9663;48.996;8.334;2022-10-04T21:44:46;100855.16;;;15.91
19061;BMP280;9663;48.996;8.334;2022-10-04T21:47:12;100859.44;;;15.89
19061;BMP280;9663;48.996;8.334;2022-10-04T21:49:38;100854.34;;;15.87
19061;BMP280;9663;48.996;8.334;2022-10-04T21:52:04;100856.91;;;15.87
19061;BMP280;9663;48.996;8.334;2022-10-04T21:54:30;100855.22;;;15.86
19061;BMP280;9663;48.996;8.334;2022-10-04T21:56:56;100850.97;;;15.85
19061;BMP280;9663;48.996;8.334;2022-10-04T21:59:21;100854.41;;;15.83
19061;BMP280;9663;48.996;8.334;2022-10-04T22:01:47;100857.00;;;15.81
19061;BMP280;9663;48.996;8.334;2022-10-04T22:04:13;100858.75;;;15.78
19061;BMP280;9663;48.996;8.334;2022-10-04T22:06:39;100851.16;;;15.74
19061;BMP280;9663;48.996;8.334;2022-10-04T22:09:05;100850.34;;;15.72
19061;BMP280;9663;48.996;8.334;2022-10-04T22:11:31;100852.97;;;15.67
19061;BMP280;9663;48.996;8.334;2022-10-04T22:13:57;100848.78;;;15.63
19061;BMP280;9663;48.996;8.334;2022-10-04T22:16:23;100843.75;;;15.56
19061;BMP280;9663;48.996;8.334;2022-10-04T22:18:48;100849.81;;;15.50
19061;BMP280;9663;48.996;8.334;2022-10-04T22:21:14;100843.16;;;15.40
19061;BMP280;9663;48.996;8.334;2022-10-04T22:23:42;100838.16;;;15.33
19061;BMP280;9663;48.996;8.334;2022-10-04T22:26:19;100834.84;;;15.28
19061;BMP280;9663;48.996;8.334;2022-10-04T22:28:47;100827.22;;;15.24
19061;BMP280;9663;48.996;8.334;2022-10-04T22:31:19;100828.97;;;15.22
19061;BMP280;9663;48.996;8.334;2022-10-04T22:33:48;100830.66;;;15.21
19061;BMP280;9663;48.996;8.334;2022-10-04T22:36:48;100821.38;;;15.13
19061;BMP280;9663;48.996;8.334;2022-10-04T22:39:17;100817.09;;;15.16
19061;BMP280;9663;48.996;8.334;2022-10-04T22:41:48;100816.25;;;15.14
19061;BMP280;9663;48.996;8.334;2022-10-04T22:44:36;100817.97;;;15.12
19061;BMP280;9663;48.996;8.334;2022-10-04T22:47:10;100818.81;;;15.14
19061;BMP280;9663;48.996;8.334;2022-10-04T22:49:38;100811.13;;;15.14
19061;BMP280;9663;48.996;8.334;2022-10-04T22:52:22;100815.41;;;15.17
19061;BMP280;9663;48.996;8.334;2022-10-04T22:54:52;100822.19;;;15.18
19061;BMP280;9663;48.996;8.334;2022-10-04T22:57:19;100812.84;;;15.18
19061;BMP280;9663;48.996;8.334;2022-10-04T22:59:50;100816.19;;;15.20
19061;BMP280;9663;48.996;8.334;2022-10-04T23:02:22;100819.59;;;15.21
19061;BMP280;9663;48.996;8.334;2022-10-04T23:04:54;100824.72;;;15.21
19061;BMP280;9663;48.996;8.334;2022-10-04T23:07:20;100813.66;;;15.20
19061;BMP280;9663;48.996;8.334;2022-10-04T23:09:48;100811.13;;;15.19
19061;BMP280;9663;48.996;8.334;2022-10-04T23:12:14;100818.78;;;15.17
19061;BMP280;9663;48.996;8.334;2022-10-04T23:14:40;100812.88;;;15.15